sensor_id;sensor_type;location;lat;lon;timestamp;pressure;altitude;pressure_sealevel;temperature;humidity
57801;BME280;43627;42.728;23.256;2023-03-13T00:01:51;95228.06;;;-0.03;76.23
57801;BME280;43627;42.728;23.256;2023-03-13T00:04:18;95225.75;;;0.07;73.70
57801;BME280;43627;42.728;23.256;2023-03-13T00:06:45;95216.56;;;0.04;74.02
57801;BME280;43627;42.728;23.256;2023-03-13T00:09:13;95236.09;;;0.05;73.33
57801;BME280;43627;42.728;23.256;2023-03-13T00:11:41;95224.22;;;0.06;74.34
57801;BME280;43627;42.728;23.256;2023-03-13T00:14:08;95231.09;;;0.07;75.94
57801;BME280;43627;42.728;23.256;2023-03-13T00:16:35;95233.81;;;-0.01;73.66
57801;BME280;43627;42.728;23.256;2023-03-13T00:19:04;95239.94;;;0.00;73.60
57801;BME280;43627;42.728;23.256;2023-03-13T00:21:32;95243.78;;;0.03;74.31
57801;BME280;43627;42.728;23.256;2023-03-13T00:23:59;95242.25;;;-0.06;74.08
57801;BME280;43627;42.728;23.256;2023-03-13T00:26:27;95231.91;;;-0.07;76.29
57801;BME280;43627;42.728;23.256;2023-03-13T00:28:54;95243.41;;;-0.07;74.85
57801;BME280;43627;42.728;23.256;2023-03-13T00:31:29;95249.53;;;-0.17;75.04
57801;BME280;43627;42.728;23.256;2023-03-13T00:34:01;95228.91;;;-0.34;75.80
57801;BME280;43627;42.728;23.256;2023-03-13T00:36:33;95246.88;;;-0.27;78.25
57801;BME280;43627;42.728;23.256;2023-03-13T00:39:00;95250.69;;;-0.32;78.16
57801;BME280;43627;42.728;23.256;2023-03-13T00:41:29;95251.47;;;-0.42;78.64
57801;BME280;43627;42.728;23.256;2023-03-13T00:43:56;95240.38;;;-0.41;78.11
57801;BME280;43627;42.728;23.256;2023-03-13T00:46:25;95244.19;;;-0.38;79.46
57801;BME280;43627;42.728;23.256;2023-03-13T00:48:52;95244.97;;;-0.52;78.54
57801;BME280;43627;42.728;23.256;2023-03-13T00:51:20;95241.53;;;-0.45;78.23
57801;BME280;43627;42.728;23.256;2023-03-13T00:53:47;95235.81;;;-0.47;78.84
57801;BME280;43627;42.728;23.256;2023-03-13T00:56:16;95238.47;;;-0.47;78.30
57801;BME280;43627;42.728;23.256;2023-03-13T00:58:45;95230.44;;;-0.51;79.25
57801;BME280;43627;42.728;23.256;2023-03-13T01:01:16;95241.53;;;-0.42;81.93
57801;BME280;43627;42.728;23.256;2023-03-13T01:03:45;95252.22;;;-0.49;80.18
57801;BME280;43627;42.728;23.256;2023-03-13T01:06:14;95224.31;;;-0.44;80.56
57801;BME280;43627;42.728;23.256;2023-03-13T01:08:42;95226.97;;;-0.48;79.36
57801;BME280;43627;42.728;23.256;2023-03-13T01:11:11;95234.25;;;-0.38;76.80
57801;BME280;43627;42.728;23.256;2023-03-13T01:13:39;95235.78;;;-0.37;77.31
57801;BME280;43627;42.728;23.256;2023-03-13T01:16:11;95231.56;;;-0.31;78.13
57801;BME280;43627;42.728;23.256;2023-03-13T01:18:41;95232.31;;;-0.30;78.20
57801;BME280;43627;42.728;23.256;2023-03-13T01:21:08;95236.16;;;-0.35;78.31
57801;BME280;43627;42.728;23.256;2023-03-13T01:23:36;95231.19;;;-0.33;82.75
57801;BME280;43627;42.728;23.256;2023-03-13T01:26:04;95231.94;;;-0.29;79.56
57801;BME280;43627;42.728;23.256;2023-03-13T01:28:32;95248.03;;;-0.32;78.50
57801;BME280;43627;42.728;23.256;2023-03-13T01:31:00;95253.78;;;-0.34;78.30
57801;BME280;43627;42.728;23.256;2023-03-13T01:33:35;95248.41;;;-0.26;80.46
57801;BME280;43627;42.728;23.256;2023-03-13T01:36:02;95253.00;;;-0.23;78.99
57801;BME280;43627;42.728;23.256;2023-03-13T01:38:29;95250.31;;;-0.23;77.89
57801;BME280;43627;42.728;23.256;2023-03-13T01:40:56;95242.28;;;-0.27;79.36
57801;BME280;43627;42.728;23.256;2023-03-13T01:43:25;95248.41;;;-0.30;79.12
57801;BME280;43627;42.728;23.256;2023-03-13T01:51:24;95264.13;;;-0.46;78.96
57801;BME280;43627;42.728;23.256;2023-03-13T01:53:58;95262.97;;;-0.42;83.08
57801;BME280;43627;42.728;23.256;2023-03-13T01:56:31;95250.34;;;-0.55;80.74
57801;BME280;43627;42.728;23.256;2023-03-13T01:58:59;95256.81;;;-0.49;81.73
57801;BME280;43627;42.728;23.256;2023-03-13T02:01:28;95252.63;;;-0.61;81.22
57801;BME280;43627;42.728;23.256;2023-03-13T02:03:55;95251.84;;;-0.72;79.43
57801;BME280;43627;42.728;23.256;2023-03-13T02:06:25;95250.31;;;-0.70;80.01
57801;BME280;43627;42.728;23.256;2023-03-13T02:08:57;95254.91;;;-0.60;86.09
57801;BME280;43627;42.728;23.256;2023-03-13T02:11:30;95267.16;;;-0.51;98.63
57801;BME280;43627;42.728;23.256;2023-03-13T02:14:02;95268.69;;;-0.58;90.85
57801;BME280;43627;42.728;23.256;2023-03-13T02:16:32;95269.09;;;-0.55;100.00
57801;BME280;43627;42.728;23.256;2023-03-13T02:19:02;95277.50;;;-0.61;97.23
57801;BME280;43627;42.728;23.256;2023-03-13T02:21:44;95285.13;;;-0.70;89.74
57801;BME280;43627;42.728;23.256;2023-03-13T02:24:15;95282.44;;;-0.95;87.83
57801;BME280;43627;42.728;23.256;2023-03-13T02:26:45;95285.72;;;-1.37;89.69
57801;BME280;43627;42.728;23.256;2023-03-13T02:29:12;95290.66;;;-1.50;98.44
57801;BME280;43627;42.728;23.256;2023-03-13T02:31:45;95297.78;;;-1.79;100.00
57801;BME280;43627;42.728;23.256;2023-03-13T02:34:19;95297.78;;;-1.79;100.00
57801;BME280;43627;42.728;23.256;2023-03-13T02:36:48;95290.88;;;-1.83;100.00
57801;BME280;43627;42.728;23.256;2023-03-13T02:39:16;95305.19;;;-2.13;100.00
57801;BME280;43627;42.728;23.256;2023-03-13T02:41:44;95305.56;;;-2.14;100.00
57801;BME280;43627;42.728;23.256;2023-03-13T02:44:12;95314.34;;;-2.10;100.00
57801;BME280;43627;42.728;23.256;2023-03-13T02:46:49;95330.31;;;-2.24;100.00
57801;BME280;43627;42.728;23.256;2023-03-13T02:49:25;95322.53;;;-2.40;100.00
57801;BME280;43627;42.728;23.256;2023-03-13T02:51:54;95318.63;;;-2.50;100.00
57801;BME280;43627;42.728;23.256;2023-03-13T02:54:25;95327.34;;;-2.56;100.00
57801;BME280;43627;42.728;23.256;2023-03-13T02:56:56;95324.06;;;-2.39;100.00
57801;BME280;43627;42.728;23.256;2023-03-13T02:59:24;95324.81;;;-2.42;100.00
57801;BME280;43627;42.728;23.256;2023-03-13T03:01:51;95325.69;;;-2.27;100.00
57801;BME280;43627;42.728;23.256;2023-03-13T03:04:19;95323.44;;;-2.22;100.00
57801;BME280;43627;42.728;23.256;2023-03-13T03:06:47;95321.16;;;-2.20;100.00
57801;BME280;43627;42.728;23.256;2023-03-13T03:09:14;95331.19;;;-2.06;100.00
57801;BME280;43627;42.728;23.256;2023-03-13T03:11:41;95334.63;;;-2.06;100.00
57801;BME280;43627;42.728;23.256;2023-03-13T03:14:09;95336.94;;;-2.01;100.00
57801;BME280;43627;42.728;23.256;2023-03-13T03:16:37;95341.19;;;-1.96;100.00
57801;BME280;43627;42.728;23.256;2023-03-13T03:19:04;95350.75;;;-1.95;100.00
57801;BME280;43627;42.728;23.256;2023-03-13T03:21:32;95347.69;;;-1.97;100.00
57801;BME280;43627;42.728;23.256;2023-03-13T03:23:59;95368.63;;;-2.03;100.00
57801;BME280;43627;42.728;23.256;2023-03-13T03:26:26;95363.03;;;-1.87;100.00
57801;BME280;43627;42.728;23.256;2023-03-13T03:28:53;95357.28;;;-1.85;100.00
57801;BME280;43627;42.728;23.256;2023-03-13T03:31:20;95355.44;;;-1.78;100.00
57801;BME280;43627;42.728;23.256;2023-03-13T03:33:47;95347.47;;;-1.67;100.00
57801;BME280;43627;42.728;23.256;2023-03-13T03:36:16;95349.38;;;-1.67;100.00
57801;BME280;43627;42.728;23.256;2023-03-13T03:38:43;95370.00;;;-1.68;100.00
57801;BME280;43627;42.728;23.256;2023-03-13T03:41:11;95388.59;;;-1.86;100.00
57801;BME280;43627;42.728;23.256;2023-03-13T03:43:40;95388.16;;;-1.95;100.00
57801;BME280;43627;42.728;23.256;2023-03-13T03:46:07;95394.63;;;-1.96;100.00
57801;BME280;43627;42.728;23.256;2023-03-13T03:48:34;95391.75;;;-1.73;100.00
57801;BME280;43627;42.728;23.256;2023-03-13T03:51:02;95388.16;;;-1.91;100.00
57801;BME280;43627;42.728;23.256;2023-03-13T03:53:28;95400.06;;;-1.82;100.00
57801;BME280;43627;42.728;23.256;2023-03-13T03:55:55;95395.88;;;-1.83;100.00
57801;BME280;43627;42.728;23.256;2023-03-13T03:58:21;95395.03;;;-1.94;100.00
57801;BME280;43627;42.728;23.256;2023-03-13T04:00:48;95408.03;;;-1.92;100.00
57801;BME280;43627;42.728;23.256;2023-03-13T04:03:15;95386.34;;;-1.80;100.00
57801;BME280;43627;42.728;23.256;2023-03-13T04:05:42;95407.38;;;-1.75;100.00
57801;BME280;43627;42.728;23.256;2023-03-13T04:08:09;95411.00;;;-2.01;100.00
57801;BME280;43627;42.728;23.256;2023-03-13T04:10:36;95424.50;;;-1.83;100.00
57801;BME280;43627;42.728;23.256;2023-03-13T04:13:02;95417.88;;;-2.00;100.00
57801;BME280;43627;42.728;23.256;2023-03-13T04:15:29;95425.91;;;-2.00;100.00
57801;BME280;43627;42.728;23.256;2023-03-13T04:17:56;95425.03;;;-2.11;100.00
57801;BME280;43627;42.728;23.256;2023-03-13T04:20:22;95430.78;;;-2.09;100.00
57801;BME280;43627;42.728;23.256;2023-03-13T04:22:49;95419.38;;;-2.06;100.00
57801;BME280;43627;42.728;23.256;2023-03-13T04:25:16;95436.97;;;-2.02;100.00
57801;BME280;43627;42.728;23.256;2023-03-13T04:27:43;95426.94;;;-2.12;100.00
57801;BME280;43627;42.728;23.256;2023-03-13T04:30:10;95433.09;;;-2.08;100.00
57801;BME280;43627;42.728;23.256;2023-03-13T04:32:37;95422.63;;;-2.27;100.00
57801;BME280;43627;42.728;23.256;2023-03-13T04:35:04;95455.47;;;-2.23;100.00
57801;BME280;43627;42.728;23.256;2023-03-13T04:37:30;95459.75;;;-2.15;100.00
57801;BME280;43627;42.728;23.256;2023-03-13T04:39:57;95462.72;;;-2.23;100.00
57801;BME280;43627;42.728;23.256;2023-03-13T04:42:24;95468.59;;;-2.07;100.00
57801;BME280;43627;42.728;23.256;2023-03-13T04:44:51;95476.25;;;-2.06;100.00
57801;BME280;43627;42.728;23.256;2023-03-13T04:47:18;95478.16;;;-2.06;100.00
57801;BME280;43627;42.728;23.256;2023-03-13T04:49:44;95476.66;;;-2.04;100.00
57801;BME280;43627;42.728;23.256;2023-03-13T04:52:11;95462.06;;;-2.13;100.00
57801;BME280;43627;42.728;23.256;2023-03-13T04:54:38;95483.50;;;-2.06;100.00
57801;BME280;43627;42.728;23.256;2023-03-13T04:57:05;95475.97;;;-1.93;100.00
57801;BME280;43627;42.728;23.256;2023-03-13T04:59:31;95485.81;;;-2.01;100.00
57801;BME280;43627;42.728;23.256;2023-03-13T05:01:58;95475.19;;;-1.97;100.00
57801;BME280;43627;42.728;23.256;2023-03-13T05:04:25;95470.34;;;-1.81;100.00
57801;BME280;43627;42.728;23.256;2023-03-13T05:06:51;95471.44;;;-1.89;100.00
57801;BME280;43627;42.728;23.256;2023-03-13T05:09:18;95486.19;;;-2.03;100.00
57801;BME280;43627;42.728;23.256;2023-03-13T05:11:45;95482.16;;;-1.86;100.00
57801;BME280;43627;42.728;23.256;2023-03-13T05:14:11;95492.22;;;-1.68;100.00
57801;BME280;43627;42.728;23.256;2023-03-13T05:16:38;95490.47;;;-1.47;100.00
57801;BME280;43627;42.728;23.256;2023-03-13T05:19:05;95493.53;;;-1.48;100.00
57801;BME280;43627;42.728;23.256;2023-03-13T05:21:31;95498.50;;;-1.50;100.00
57801;BME280;43627;42.728;23.256;2023-03-13T05:23:58;95497.81;;;-1.40;100.00
57801;BME280;43627;42.728;23.256;2023-03-13T05:26:25;95507.75;;;-1.37;100.00
57801;BME280;43627;42.728;23.256;2023-03-13T05:28:51;95504.00;;;-1.25;100.00
57801;BME280;43627;42.728;23.256;2023-03-13T05:31:18;95509.03;;;-1.20;100.00
57801;BME280;43627;42.728;23.256;2023-03-13T05:33:45;95501.56;;;-0.86;100.00
57801;BME280;43627;42.728;23.256;2023-03-13T05:36:11;95500.31;;;-0.23;100.00
57801;BME280;43627;42.728;23.256;2023-03-13T05:38:38;95516.09;;;0.93;100.00
57801;BME280;43627;42.728;23.256;2023-03-13T05:41:05;95517.78;;;1.78;96.50
57801;BME280;43627;42.728;23.256;2023-03-13T05:43:31;95522.31;;;3.06;85.11
57801;BME280;43627;42.728;23.256;2023-03-13T05:45:58;95517.72;;;3.75;71.71
57801;BME280;43627;42.728;23.256;2023-03-13T05:48:25;95521.97;;;4.33;67.02
57801;BME280;43627;42.728;23.256;2023-03-13T05:50:51;95514.13;;;4.69;60.29
57801;BME280;43627;42.728;23.256;2023-03-13T05:53:18;95525.78;;;4.63;65.16
57801;BME280;43627;42.728;23.256;2023-03-13T05:55:45;95529.22;;;4.40;61.79
57801;BME280;43627;42.728;23.256;2023-03-13T05:58:11;95537.78;;;4.04;57.03
57801;BME280;43627;42.728;23.256;2023-03-13T06:00:38;95531.00;;;3.92;61.29
57801;BME280;43627;42.728;23.256;2023-03-13T06:03:05;95535.22;;;3.63;57.42
57801;BME280;43627;42.728;23.256;2023-03-13T06:05:31;95538.66;;;3.26;57.39
57801;BME280;43627;42.728;23.256;2023-03-13T06:07:58;95548.78;;;3.14;57.40
57801;BME280;43627;42.728;23.256;2023-03-13T06:10:24;95535.94;;;2.88;61.37
57801;BME280;43627;42.728;23.256;2023-03-13T06:12:52;95536.19;;;2.56;62.68
57801;BME280;43627;42.728;23.256;2023-03-13T06:15:19;95548.63;;;2.32;69.01
57801;BME280;43627;42.728;23.256;2023-03-13T06:17:46;95552.34;;;2.56;69.90
57801;BME280;43627;42.728;23.256;2023-03-13T06:20:13;95539.69;;;2.46;72.96
57801;BME280;43627;42.728;23.256;2023-03-13T06:22:40;95537.75;;;2.46;71.83
57801;BME280;43627;42.728;23.256;2023-03-13T06:25:08;95545.13;;;2.39;68.76
57801;BME280;43627;42.728;23.256;2023-03-13T06:27:34;95530.53;;;2.36;67.87
57801;BME280;43627;42.728;23.256;2023-03-13T06:30:01;95530.91;;;2.38;68.05
57801;BME280;43627;42.728;23.256;2023-03-13T06:32:28;95524.34;;;2.43;63.85
57801;BME280;43627;42.728;23.256;2023-03-13T06:34:55;95519.06;;;2.25;69.69
57801;BME280;43627;42.728;23.256;2023-03-13T06:37:22;95528.25;;;2.31;66.40
57801;BME280;43627;42.728;23.256;2023-03-13T06:39:49;95542.03;;;2.44;67.36
57801;BME280;43627;42.728;23.256;2023-03-13T06:42:15;95547.63;;;2.67;63.25
57801;BME280;43627;42.728;23.256;2023-03-13T06:44:42;95541.13;;;2.61;62.21
57801;BME280;43627;42.728;23.256;2023-03-13T06:47:10;95537.19;;;2.73;63.33
57801;BME280;43627;42.728;23.256;2023-03-13T06:49:39;95544.53;;;2.69;60.08
57801;BME280;43627;42.728;23.256;2023-03-13T06:52:06;95530.72;;;2.67;60.47
57801;BME280;43627;42.728;23.256;2023-03-13T06:54:32;95537.06;;;2.91;60.13
57801;BME280;43627;42.728;23.256;2023-03-13T06:56:59;95531.84;;;3.14;59.09
57801;BME280;43627;42.728;23.256;2023-03-13T06:59:26;95526.09;;;3.12;58.55
57801;BME280;43627;42.728;23.256;2023-03-13T07:01:52;95518.84;;;3.43;58.77
57801;BME280;43627;42.728;23.256;2023-03-13T07:04:19;95543.38;;;3.56;57.54
57801;BME280;43627;42.728;23.256;2023-03-13T07:06:46;95532.69;;;3.45;55.87
57801;BME280;43627;42.728;23.256;2023-03-13T07:09:13;95537.47;;;3.30;56.17
57801;BME280;43627;42.728;23.256;2023-03-13T07:11:39;95539.84;;;3.25;56.61
57801;BME280;43627;42.728;23.256;2023-03-13T07:14:06;95536.47;;;3.13;56.31
57801;BME280;43627;42.728;23.256;2023-03-13T07:16:43;95532.47;;;3.29;56.31
57801;BME280;43627;42.728;23.256;2023-03-13T07:19:10;95528.94;;;3.35;56.64
57801;BME280;43627;42.728;23.256;2023-03-13T07:21:37;95523.72;;;3.18;55.30
57801;BME280;43627;42.728;23.256;2023-03-13T07:24:04;95530.94;;;3.65;56.09
57801;BME280;43627;42.728;23.256;2023-03-13T07:26:30;95520.66;;;3.87;55.24
57801;BME280;43627;42.728;23.256;2023-03-13T07:28:58;95520.06;;;4.03;57.02
57801;BME280;43627;42.728;23.256;2023-03-13T07:31:24;95534.91;;;4.45;54.56
57801;BME280;43627;42.728;23.256;2023-03-13T07:33:53;95525.94;;;4.79;53.89
57801;BME280;43627;42.728;23.256;2023-03-13T07:36:22;95519.50;;;4.93;55.12
57801;BME280;43627;42.728;23.256;2023-03-13T07:38:50;95526.09;;;4.68;53.85
57801;BME280;43627;42.728;23.256;2023-03-13T07:41:18;95520.19;;;4.50;54.83
57801;BME280;43627;42.728;23.256;2023-03-13T07:43:45;95522.97;;;4.70;53.71
57801;BME280;43627;42.728;23.256;2023-03-13T07:46:16;95529.22;;;4.67;54.92
57801;BME280;43627;42.728;23.256;2023-03-13T07:48:45;95520.69;;;4.41;55.18
57801;BME280;43627;42.728;23.256;2023-03-13T07:51:17;95523.50;;;4.34;55.80
57801;BME280;43627;42.728;23.256;2023-03-13T07:53:49;95521.25;;;3.71;58.41
57801;BME280;43627;42.728;23.256;2023-03-13T07:56:19;95518.22;;;3.66;57.96
57801;BME280;43627;42.728;23.256;2023-03-13T07:58:47;95517.66;;;3.82;56.41
57801;BME280;43627;42.728;23.256;2023-03-13T08:01:22;95511.69;;;3.63;58.39
57801;BME280;43627;42.728;23.256;2023-03-13T08:03:52;95511.13;;;3.45;60.29
57801;BME280;43627;42.728;23.256;2023-03-13T08:06:23;95520.84;;;3.73;59.06
57801;BME280;43627;42.728;23.256;2023-03-13T08:08:50;95513.69;;;3.90;61.33
57801;BME280;43627;42.728;23.256;2023-03-13T08:11:19;95510.47;;;3.68;61.76
57801;BME280;43627;42.728;23.256;2023-03-13T08:13:47;95518.00;;;3.84;59.69
57801;BME280;43627;42.728;23.256;2023-03-13T08:16:18;95513.16;;;4.02;58.56
57801;BME280;43627;42.728;23.256;2023-03-13T08:18:47;95512.69;;;4.34;56.53
57801;BME280;43627;42.728;23.256;2023-03-13T08:21:17;95514.75;;;4.26;55.82
57801;BME280;43627;42.728;23.256;2023-03-13T08:23:44;95521.53;;;4.38;54.92
57801;BME280;43627;42.728;23.256;2023-03-13T08:26:13;95522.31;;;4.35;54.39
57801;BME280;43627;42.728;23.256;2023-03-13T08:28:41;95518.41;;;4.13;54.27
57801;BME280;43627;42.728;23.256;2023-03-13T08:31:13;95516.88;;;4.12;54.19
57801;BME280;43627;42.728;23.256;2023-03-13T08:33:41;95522.69;;;4.10;53.42
57801;BME280;43627;42.728;23.256;2023-03-13T08:36:26;95529.69;;;4.04;51.69
57801;BME280;43627;42.728;23.256;2023-03-13T08:38:57;95510.97;;;4.20;53.75
57801;BME280;43627;42.728;23.256;2023-03-13T08:41:26;95503.00;;;4.64;53.08
57801;BME280;43627;42.728;23.256;2023-03-13T08:43:55;95515.19;;;4.75;53.33
57801;BME280;43627;42.728;23.256;2023-03-13T08:46:23;95520.88;;;5.04;52.27
57801;BME280;43627;42.728;23.256;2023-03-13T08:48:51;95521.59;;;4.85;51.78
57801;BME280;43627;42.728;23.256;2023-03-13T08:51:21;95504.97;;;5.30;50.28
57801;BME280;43627;42.728;23.256;2023-03-13T08:53:49;95503.84;;;5.07;51.11
57801;BME280;43627;42.728;23.256;2023-03-13T08:56:18;95511.19;;;5.07;51.33
57801;BME280;43627;42.728;23.256;2023-03-13T08:58:49;95511.28;;;5.23;51.08
57801;BME280;43627;42.728;23.256;2023-03-13T09:01:16;95517.28;;;5.54;52.85
57801;BME280;43627;42.728;23.256;2023-03-13T09:03:43;95524.56;;;5.77;50.12
57801;BME280;43627;42.728;23.256;2023-03-13T09:06:10;95519.66;;;5.72;49.38
57801;BME280;43627;42.728;23.256;2023-03-13T09:08:37;95513.47;;;5.71;51.90
57801;BME280;43627;42.728;23.256;2023-03-13T09:11:16;95512.53;;;6.01;49.23
57801;BME280;43627;42.728;23.256;2023-03-13T09:13:45;95512.63;;;6.14;50.00
57801;BME280;43627;42.728;23.256;2023-03-13T09:16:20;95507.59;;;6.33;50.77
57801;BME280;43627;42.728;23.256;2023-03-13T09:18:48;95506.25;;;6.41;48.78
57801;BME280;43627;42.728;23.256;2023-03-13T09:21:17;95501.28;;;6.55;48.39
57801;BME280;43627;42.728;23.256;2023-03-13T09:23:44;95501.00;;;6.34;47.63
57801;BME280;43627;42.728;23.256;2023-03-13T09:26:11;95509.16;;;6.66;49.19
57801;BME280;43627;42.728;23.256;2023-03-13T09:28:38;95508.53;;;6.42;47.87
57801;BME280;43627;42.728;23.256;2023-03-13T09:31:12;95502.75;;;6.24;48.92
57801;BME280;43627;42.728;23.256;2023-03-13T09:33:40;95514.91;;;6.52;49.49
57801;BME280;43627;42.728;23.256;2023-03-13T09:36:08;95505.53;;;6.73;48.04
57801;BME280;43627;42.728;23.256;2023-03-13T09:38:35;95495.16;;;7.00;49.89
57801;BME280;43627;42.728;23.256;2023-03-13T09:41:10;95493.59;;;6.86;47.95
57801;BME280;43627;42.728;23.256;2023-03-13T09:46:20;95476.94;;;7.17;47.21
57801;BME280;43627;42.728;23.256;2023-03-13T09:48:51;95484.09;;;7.11;47.73
57801;BME280;43627;42.728;23.256;2023-03-13T09:51:38;95489.25;;;7.05;47.64
57801;BME280;43627;42.728;23.256;2023-03-13T09:54:37;95480.88;;;7.29;46.11
57801;BME280;43627;42.728;23.256;2023-03-13T09:57:24;95478.34;;;6.93;46.07
57801;BME280;43627;42.728;23.256;2023-03-13T10:00:00;95479.69;;;6.68;46.68
57801;BME280;43627;42.728;23.256;2023-03-13T10:02:32;95474.59;;;6.86;46.75
57801;BME280;43627;42.728;23.256;2023-03-13T10:05:15;95466.91;;;7.30;46.51
57801;BME280;43627;42.728;23.256;2023-03-13T10:07:44;95473.75;;;7.64;46.81
57801;BME280;43627;42.728;23.256;2023-03-13T10:10:18;95465.31;;;7.74;45.23
57801;BME280;43627;42.728;23.256;2023-03-13T10:12:48;95466.19;;;7.84;46.72
57801;BME280;43627;42.728;23.256;2023-03-13T10:15:29;95458.09;;;8.10;45.45
57801;BME280;43627;42.728;23.256;2023-03-13T10:17:59;95443.75;;;8.22;45.77
57801;BME280;43627;42.728;23.256;2023-03-13T10:20:34;95447.22;;;8.22;45.17
57801;BME280;43627;42.728;23.256;2023-03-13T10:23:13;95448.78;;;8.36;45.05
57801;BME280;43627;42.728;23.256;2023-03-13T10:25:40;95443.09;;;8.69;44.64
57801;BME280;43627;42.728;23.256;2023-03-13T10:28:13;95440.97;;;8.38;43.25
57801;BME280;43627;42.728;23.256;2023-03-13T10:31:09;95439.09;;;8.22;43.11
57801;BME280;43627;42.728;23.256;2023-03-13T10:33:40;95425.53;;;8.35;43.79
57801;BME280;43627;42.728;23.256;2023-03-13T10:36:11;95420.84;;;8.48;43.25
57801;BME280;43627;42.728;23.256;2023-03-13T10:38:49;95417.38;;;8.35;43.24
57801;BME280;43627;42.728;23.256;2023-03-13T10:41:35;95408.13;;;8.45;43.54
57801;BME280;43627;42.728;23.256;2023-03-13T10:44:06;95413.75;;;8.51;42.87
57801;BME280;43627;42.728;23.256;2023-03-13T10:46:42;95404.88;;;8.38;44.01
57801;BME280;43627;42.728;23.256;2023-03-13T10:49:18;95412.56;;;8.65;43.04
57801;BME280;43627;42.728;23.256;2023-03-13T10:51:53;95397.88;;;8.75;43.37
57801;BME280;43627;42.728;23.256;2023-03-13T10:54:24;95398.09;;;9.02;43.12
57801;BME280;43627;42.728;23.256;2023-03-13T10:56:52;95399.69;;;9.12;42.58
57801;BME280;43627;42.728;23.256;2023-03-13T10:59:39;95384.31;;;9.19;41.91
57801;BME280;43627;42.728;23.256;2023-03-13T11:02:32;95384.38;;;9.28;41.44
57801;BME280;43627;42.728;23.256;2023-03-13T11:05:30;95383.38;;;9.34;41.15
57801;BME280;43627;42.728;23.256;2023-03-13T11:08:10;95372.84;;;9.45;42.48
57801;BME280;43627;42.728;23.256;2023-03-13T11:10:51;95377.69;;;9.41;42.74
57801;BME280;43627;42.728;23.256;2023-03-13T11:13:29;95376.72;;;9.35;42.35
57801;BME280;43627;42.728;23.256;2023-03-13T11:16:27;95371.47;;;10.03;40.83
57801;BME280;43627;42.728;23.256;2023-03-13T11:24:51;95362.59;;;10.12;40.93
57801;BME280;43627;42.728;23.256;2023-03-13T11:35:09;95335.44;;;10.30;39.95
57801;BME280;43627;42.728;23.256;2023-03-13T11:37:43;95335.69;;;9.83;40.42
57801;BME280;43627;42.728;23.256;2023-03-13T11:48:45;95315.66;;;9.36;40.09
57801;BME280;43627;42.728;23.256;2023-03-13T11:56:55;95287.31;;;9.87;39.83
57801;BME280;43627;42.728;23.256;2023-03-13T12:02:14;95288.22;;;9.93;40.18
57801;BME280;43627;42.728;23.256;2023-03-13T12:04:47;95288.44;;;10.17;39.59
57801;BME280;43627;42.728;23.256;2023-03-13T12:10:25;95265.72;;;10.11;40.12
57801;BME280;43627;42.728;23.256;2023-03-13T12:20:48;95265.47;;;10.27;39.11
57801;BME280;43627;42.728;23.256;2023-03-13T12:26:05;95272.19;;;10.72;37.98
57801;BME280;43627;42.728;23.256;2023-03-13T12:29:03;95271.56;;;10.77;37.95
57801;BME280;43627;42.728;23.256;2023-03-13T12:31:52;95265.91;;;10.99;38.18
57801;BME280;43627;42.728;23.256;2023-03-13T12:34:45;95258.06;;;11.01;38.80
57801;BME280;43627;42.728;23.256;2023-03-13T12:40:25;95256.22;;;11.07;37.12
57801;BME280;43627;42.728;23.256;2023-03-13T12:45:32;95247.72;;;11.14;38.10
57801;BME280;43627;42.728;23.256;2023-03-13T13:01:44;95255.72;;;11.27;37.58
57801;BME280;43627;42.728;23.256;2023-03-13T13:04:16;95258.09;;;11.43;37.07
57801;BME280;43627;42.728;23.256;2023-03-13T13:07:03;95256.41;;;11.45;37.52
57801;BME280;43627;42.728;23.256;2023-03-13T13:09:33;95258.00;;;11.28;38.63
57801;BME280;43627;42.728;23.256;2023-03-13T13:12:14;95245.06;;;11.47;37.66
57801;BME280;43627;42.728;23.256;2023-03-13T13:17:15;95252.06;;;11.72;37.52
57801;BME280;43627;42.728;23.256;2023-03-13T13:19:46;95244.00;;;11.78;37.70
57801;BME280;43627;42.728;23.256;2023-03-13T13:32:46;95225.16;;;11.89;37.31
57801;BME280;43627;42.728;23.256;2023-03-13T13:37:49;95227.16;;;11.79;37.65
57801;BME280;43627;42.728;23.256;2023-03-13T13:40:28;95213.59;;;11.94;36.65
57801;BME280;43627;42.728;23.256;2023-03-13T13:43:02;95221.47;;;12.40;37.10
57801;BME280;43627;42.728;23.256;2023-03-13T13:45:36;95230.59;;;12.61;35.89
57801;BME280;43627;42.728;23.256;2023-03-13T13:48:20;95230.06;;;12.33;36.50
57801;BME280;43627;42.728;23.256;2023-03-13T13:53:51;95225.91;;;12.37;35.97
57801;BME280;43627;42.728;23.256;2023-03-13T13:56:35;95221.66;;;12.12;36.58
57801;BME280;43627;42.728;23.256;2023-03-13T14:02:13;95218.75;;;12.40;36.20
57801;BME280;43627;42.728;23.256;2023-03-13T14:04:58;95219.53;;;12.16;36.21
57801;BME280;43627;42.728;23.256;2023-03-13T14:12:55;95201.34;;;12.52;35.86
57801;BME280;43627;42.728;23.256;2023-03-13T14:15:30;95203.53;;;12.77;34.50
57801;BME280;43627;42.728;23.256;2023-03-13T14:17:59;95204.59;;;12.80;34.46
57801;BME280;43627;42.728;23.256;2023-03-13T14:20:37;95196.28;;;12.74;34.38
57801;BME280;43627;42.728;23.256;2023-03-13T14:25:46;95210.09;;;13.24;34.07
57801;BME280;43627;42.728;23.256;2023-03-13T14:28:22;95206.13;;;13.10;33.55
57801;BME280;43627;42.728;23.256;2023-03-13T14:30:51;95186.94;;;12.96;34.28
57801;BME280;43627;42.728;23.256;2023-03-13T14:33:18;95211.59;;;13.10;33.61
57801;BME280;43627;42.728;23.256;2023-03-13T14:35:46;95202.06;;;12.91;34.18
57801;BME280;43627;42.728;23.256;2023-03-13T14:38:17;95207.81;;;12.93;34.00
57801;BME280;43627;42.728;23.256;2023-03-13T14:40:44;95203.56;;;12.92;34.62
57801;BME280;43627;42.728;23.256;2023-03-13T14:45:47;95203.19;;;12.07;35.64
57801;BME280;43627;42.728;23.256;2023-03-13T14:48:21;95208.19;;;12.09;35.32
57801;BME280;43627;42.728;23.256;2023-03-13T14:50:50;95202.91;;;12.05;36.13
57801;BME280;43627;42.728;23.256;2023-03-13T14:53:34;95200.75;;;11.85;36.42